sensor_id;sensor_type;location;lat;lon;timestamp;temperature;humidity
5870;DHT22;2961;47.702;9.410;2024-03-29T00:01:01;5.40;99.90
5870;DHT22;2961;47.702;9.410;2024-03-29T00:03:27;5.40;99.90
5870;DHT22;2961;47.702;9.410;2024-03-29T00:05:53;5.50;99.90
5870;DHT22;2961;47.702;9.410;2024-03-29T00:08:19;5.50;99.90
5870;DHT22;2961;47.702;9.410;2024-03-29T00:10:46;5.50;99.90
5870;DHT22;2961;47.702;9.410;2024-03-29T00:13:14;5.50;99.90
5870;DHT22;2961;47.702;9.410;2024-03-29T00:15:40;5.60;99.90
5870;DHT22;2961;47.702;9.410;2024-03-29T00:18:06;5.70;99.90
5870;DHT22;2961;47.702;9.410;2024-03-29T00:20:32;5.60;99.90
5870;DHT22;2961;47.702;9.410;2024-03-29T00:22:58;5.60;99.90
5870;DHT22;2961;47.702;9.410;2024-03-29T00:25:24;5.50;99.90
5870;DHT22;2961;47.702;9.410;2024-03-29T00:27:50;5.40;99.90
5870;DHT22;2961;47.702;9.410;2024-03-29T00:30:17;5.40;99.90
5870;DHT22;2961;47.702;9.410;2024-03-29T00:32:43;5.40;99.90
5870;DHT22;2961;47.702;9.410;2024-03-29T00:35:09;5.40;99.90
5870;DHT22;2961;47.702;9.410;2024-03-29T00:37:34;5.30;99.90
5870;DHT22;2961;47.702;9.410;2024-03-29T00:40:00;5.40;99.90
5870;DHT22;2961;47.702;9.410;2024-03-29T00:42:26;5.40;99.90
5870;DHT22;2961;47.702;9.410;2024-03-29T00:44:52;5.50;99.90
5870;DHT22;2961;47.702;9.410;2024-03-29T00:47:19;5.50;99.90
5870;DHT22;2961;47.702;9.410;2024-03-29T00:49:45;5.50;99.90
5870;DHT22;2961;47.702;9.410;2024-03-29T00:52:11;5.50;99.90
5870;DHT22;2961;47.702;9.410;2024-03-29T00:54:37;5.50;99.90
5870;DHT22;2961;47.702;9.410;2024-03-29T00:57:03;5.50;99.90
5870;DHT22;2961;47.702;9.410;2024-03-29T00:59:29;5.50;99.90
5870;DHT22;2961;47.702;9.410;2024-03-29T01:01:55;5.40;99.90
5870;DHT22;2961;47.702;9.410;2024-03-29T01:04:22;5.50;99.90
5870;DHT22;2961;47.702;9.410;2024-03-29T01:06:48;5.40;99.90
5870;DHT22;2961;47.702;9.410;2024-03-29T01:09:14;5.40;99.90
5870;DHT22;2961;47.702;9.410;2024-03-29T01:11:40;5.50;99.90
5870;DHT22;2961;47.702;9.410;2024-03-29T01:14:06;5.50;99.90
5870;DHT22;2961;47.702;9.410;2024-03-29T01:16:32;5.60;99.90
5870;DHT22;2961;47.702;9.410;2024-03-29T01:18:58;5.60;99.90
5870;DHT22;2961;47.702;9.410;2024-03-29T01:21:26;5.70;99.90
5870;DHT22;2961;47.702;9.410;2024-03-29T01:23:52;5.80;99.90
5870;DHT22;2961;47.702;9.410;2024-03-29T01:26:18;5.80;99.90
5870;DHT22;2961;47.702;9.410;2024-03-29T01:28:44;5.80;99.90
5870;DHT22;2961;47.702;9.410;2024-03-29T01:31:10;5.90;99.90
5870;DHT22;2961;47.702;9.410;2024-03-29T01:33:36;5.90;99.90
5870;DHT22;2961;47.702;9.410;2024-03-29T01:36:03;5.90;99.90
5870;DHT22;2961;47.702;9.410;2024-03-29T01:38:30;6.00;99.90
5870;DHT22;2961;47.702;9.410;2024-03-29T01:40:56;6.10;99.90
5870;DHT22;2961;47.702;9.410;2024-03-29T01:43:22;6.10;99.90
5870;DHT22;2961;47.702;9.410;2024-03-29T01:45:51;6.10;99.90
5870;DHT22;2961;47.702;9.410;2024-03-29T01:48:20;6.10;99.90
5870;DHT22;2961;47.702;9.410;2024-03-29T01:50:48;6.20;99.90
5870;DHT22;2961;47.702;9.410;2024-03-29T01:53:17;6.20;99.90
5870;DHT22;2961;47.702;9.410;2024-03-29T01:55:46;6.30;99.90
5870;DHT22;2961;47.702;9.410;2024-03-29T01:58:14;6.40;99.90
5870;DHT22;2961;47.702;9.410;2024-03-29T02:00:44;6.60;99.90
5870;DHT22;2961;47.702;9.410;2024-03-29T02:03:12;6.60;99.90
5870;DHT22;2961;47.702;9.410;2024-03-29T02:05:40;6.50;99.90
5870;DHT22;2961;47.702;9.410;2024-03-29T02:08:07;6.50;99.90
5870;DHT22;2961;47.702;9.410;2024-03-29T02:10:34;6.50;99.90
5870;DHT22;2961;47.702;9.410;2024-03-29T02:13:03;6.50;99.90
5870;DHT22;2961;47.702;9.410;2024-03-29T02:15:30;6.60;99.90
5870;DHT22;2961;47.702;9.410;2024-03-29T02:17:57;6.60;99.90
5870;DHT22;2961;47.702;9.410;2024-03-29T02:20:25;6.70;99.90
5870;DHT22;2961;47.702;9.410;2024-03-29T02:22:54;6.70;99.90
5870;DHT22;2961;47.702;9.410;2024-03-29T02:25:23;6.80;99.90
5870;DHT22;2961;47.702;9.410;2024-03-29T02:27:50;7.00;99.90
5870;DHT22;2961;47.702;9.410;2024-03-29T02:30:17;7.10;99.90
5870;DHT22;2961;47.702;9.410;2024-03-29T02:32:45;7.10;99.90
5870;DHT22;2961;47.702;9.410;2024-03-29T02:35:12;7.10;99.90
5870;DHT22;2961;47.702;9.410;2024-03-29T02:37:39;7.10;99.90
5870;DHT22;2961;47.702;9.410;2024-03-29T02:40:06;7.10;99.90
5870;DHT22;2961;47.702;9.410;2024-03-29T02:42:35;7.10;99.90
5870;DHT22;2961;47.702;9.410;2024-03-29T02:45:02;7.10;99.90
5870;DHT22;2961;47.702;9.410;2024-03-29T02:47:29;7.20;99.90
5870;DHT22;2961;47.702;9.410;2024-03-29T02:49:56;7.20;99.90
5870;DHT22;2961;47.702;9.410;2024-03-29T02:52:22;7.10;99.90
5870;DHT22;2961;47.702;9.410;2024-03-29T02:54:49;7.00;99.90
5870;DHT22;2961;47.702;9.410;2024-03-29T02:57:15;7.00;99.90
5870;DHT22;2961;47.702;9.410;2024-03-29T02:59:43;7.10;99.90
5870;DHT22;2961;47.702;9.410;2024-03-29T03:02:09;7.10;99.90
5870;DHT22;2961;47.702;9.410;2024-03-29T03:04:35;7.10;99.90
5870;DHT22;2961;47.702;9.410;2024-03-29T03:07:01;7.00;99.90
5870;DHT22;2961;47.702;9.410;2024-03-29T03:09:42;6.70;99.90
5870;DHT22;2961;47.702;9.410;2024-03-29T03:12:23;6.60;99.90
5870;DHT22;2961;47.702;9.410;2024-03-29T03:14:51;6.50;99.90
5870;DHT22;2961;47.702;9.410;2024-03-29T03:17:18;6.50;99.90
5870;DHT22;2961;47.702;9.410;2024-03-29T03:19:45;6.70;99.90
5870;DHT22;2961;47.702;9.410;2024-03-29T03:22:11;6.70;99.90
5870;DHT22;2961;47.702;9.410;2024-03-29T03:24:37;6.50;99.90
5870;DHT22;2961;47.702;9.410;2024-03-29T03:27:03;6.20;99.90
5870;DHT22;2961;47.702;9.410;2024-03-29T03:29:30;6.00;99.90
5870;DHT22;2961;47.702;9.410;2024-03-29T03:31:58;5.90;99.90
5870;DHT22;2961;47.702;9.410;2024-03-29T03:34:25;5.80;99.90
5870;DHT22;2961;47.702;9.410;2024-03-29T03:36:50;5.60;99.90
5870;DHT22;2961;47.702;9.410;2024-03-29T03:39:17;5.30;99.90
5870;DHT22;2961;47.702;9.410;2024-03-29T03:41:43;5.20;99.90
5870;DHT22;2961;47.702;9.410;2024-03-29T03:44:10;5.10;99.90
5870;DHT22;2961;47.702;9.410;2024-03-29T03:46:36;4.90;99.90
5870;DHT22;2961;47.702;9.410;2024-03-29T03:49:04;4.90;99.90
5870;DHT22;2961;47.702;9.410;2024-03-29T03:51:30;4.80;99.90
5870;DHT22;2961;47.702;9.410;2024-03-29T03:53:56;4.90;99.90
5870;DHT22;2961;47.702;9.410;2024-03-29T03:56:22;5.30;99.90
5870;DHT22;2961;47.702;9.410;2024-03-29T03:58:49;5.70;99.90
5870;DHT22;2961;47.702;9.410;2024-03-29T04:01:15;6.40;99.90
5870;DHT22;2961;47.702;9.410;2024-03-29T04:03:42;6.80;99.90
5870;DHT22;2961;47.702;9.410;2024-03-29T04:06:09;7.00;99.90
5870;DHT22;2961;47.702;9.410;2024-03-29T04:08:36;7.20;99.90
5870;DHT22;2961;47.702;9.410;2024-03-29T04:11:02;7.00;99.90
5870;DHT22;2961;47.702;9.410;2024-03-29T04:13:29;6.80;99.90
5870;DHT22;2961;47.702;9.410;2024-03-29T04:16:01;6.60;99.90
5870;DHT22;2961;47.702;9.410;2024-03-29T04:18:28;6.20;99.90
5870;DHT22;2961;47.702;9.410;2024-03-29T04:20:56;5.80;99.90
5870;DHT22;2961;47.702;9.410;2024-03-29T04:23:24;5.30;99.90
5870;DHT22;2961;47.702;9.410;2024-03-29T04:25:52;4.80;99.90
5870;DHT22;2961;47.702;9.410;2024-03-29T04:28:19;4.40;99.90
5870;DHT22;2961;47.702;9.410;2024-03-29T04:30:51;4.20;99.90
5870;DHT22;2961;47.702;9.410;2024-03-29T04:33:17;3.90;99.90
5870;DHT22;2961;47.702;9.410;2024-03-29T04:35:53;3.70;99.90
5870;DHT22;2961;47.702;9.410;2024-03-29T04:38:20;3.50;99.90
5870;DHT22;2961;47.702;9.410;2024-03-29T04:40:50;3.40;99.90
5870;DHT22;2961;47.702;9.410;2024-03-29T04:43:17;3.30;99.90
5870;DHT22;2961;47.702;9.410;2024-03-29T04:45:44;3.20;99.90
5870;DHT22;2961;47.702;9.410;2024-03-29T04:48:11;3.20;99.90
5870;DHT22;2961;47.702;9.410;2024-03-29T04:50:38;3.10;99.90
5870;DHT22;2961;47.702;9.410;2024-03-29T04:53:06;3.10;99.90
5870;DHT22;2961;47.702;9.410;2024-03-29T04:55:33;3.10;99.90
5870;DHT22;2961;47.702;9.410;2024-03-29T04:58:02;3.10;99.90
5870;DHT22;2961;47.702;9.410;2024-03-29T05:00:29;3.00;99.90
5870;DHT22;2961;47.702;9.410;2024-03-29T05:02:55;3.00;99.90
5870;DHT22;2961;47.702;9.410;2024-03-29T05:05:22;2.90;99.90
5870;DHT22;2961;47.702;9.410;2024-03-29T05:07:49;2.90;99.90
5870;DHT22;2961;47.702;9.410;2024-03-29T05:10:16;3.00;99.90
5870;DHT22;2961;47.702;9.410;2024-03-29T05:12:43;3.00;99.90
5870;DHT22;2961;47.702;9.410;2024-03-29T05:15:12;3.00;99.90
5870;DHT22;2961;47.702;9.410;2024-03-29T05:17:38;2.90;99.90
5870;DHT22;2961;47.702;9.410;2024-03-29T05:20:07;2.90;99.90
5870;DHT22;2961;47.702;9.410;2024-03-29T05:22:34;2.80;99.90
5870;DHT22;2961;47.702;9.410;2024-03-29T05:25:01;2.80;99.90
5870;DHT22;2961;47.702;9.410;2024-03-29T05:27:29;2.80;99.90
5870;DHT22;2961;47.702;9.410;2024-03-29T05:29:56;2.70;99.90
5870;DHT22;2961;47.702;9.410;2024-03-29T05:32:24;2.70;99.90
5870;DHT22;2961;47.702;9.410;2024-03-29T05:34:51;2.80;99.90
5870;DHT22;2961;47.702;9.410;2024-03-29T05:37:17;2.90;99.90
5870;DHT22;2961;47.702;9.410;2024-03-29T05:39:44;3.00;99.90
5870;DHT22;2961;47.702;9.410;2024-03-29T05:42:12;3.10;99.90
5870;DHT22;2961;47.702;9.410;2024-03-29T05:44:39;3.20;99.90
5870;DHT22;2961;47.702;9.410;2024-03-29T05:47:06;3.30;99.90
5870;DHT22;2961;47.702;9.410;2024-03-29T05:49:34;3.40;99.90
5870;DHT22;2961;47.702;9.410;2024-03-29T05:52:01;3.70;99.90
5870;DHT22;2961;47.702;9.410;2024-03-29T05:54:28;4.00;99.90
5870;DHT22;2961;47.702;9.410;2024-03-29T05:56:55;4.90;99.90
5870;DHT22;2961;47.702;9.410;2024-03-29T05:59:22;6.00;99.90
5870;DHT22;2961;47.702;9.410;2024-03-29T06:01:48;6.80;99.90
5870;DHT22;2961;47.702;9.410;2024-03-29T06:04:15;7.90;99.90
5870;DHT22;2961;47.702;9.410;2024-03-29T06:06:46;8.70;99.90
5870;DHT22;2961;47.702;9.410;2024-03-29T06:09:13;8.70;99.90
5870;DHT22;2961;47.702;9.410;2024-03-29T06:11:39;8.30;99.90
5870;DHT22;2961;47.702;9.410;2024-03-29T06:14:06;8.20;99.90
5870;DHT22;2961;47.702;9.410;2024-03-29T06:16:50;8.90;99.90
5870;DHT22;2961;47.702;9.410;2024-03-29T06:19:35;10.30;99.90
5870;DHT22;2961;47.702;9.410;2024-03-29T06:22:03;12.10;99.90
5870;DHT22;2961;47.702;9.410;2024-03-29T06:24:30;13.30;98.30
5870;DHT22;2961;47.702;9.410;2024-03-29T06:26:58;14.50;94.30
5870;DHT22;2961;47.702;9.410;2024-03-29T06:29:25;15.50;92.10
5870;DHT22;2961;47.702;9.410;2024-03-29T06:31:52;16.00;90.20
5870;DHT22;2961;47.702;9.410;2024-03-29T06:34:19;15.70;88.50
5870;DHT22;2961;47.702;9.410;2024-03-29T06:36:46;15.00;89.20
5870;DHT22;2961;47.702;9.410;2024-03-29T06:39:14;14.40;89.90
5870;DHT22;2961;47.702;9.410;2024-03-29T06:41:40;13.70;90.00
5870;DHT22;2961;47.702;9.410;2024-03-29T06:44:07;13.30;91.20
5870;DHT22;2961;47.702;9.410;2024-03-29T06:46:34;13.20;92.20
5870;DHT22;2961;47.702;9.410;2024-03-29T06:49:01;13.80;91.50
5870;DHT22;2961;47.702;9.410;2024-03-29T06:51:28;14.30;90.80
5870;DHT22;2961;47.702;9.410;2024-03-29T06:53:55;15.60;90.10
5870;DHT22;2961;47.702;9.410;2024-03-29T06:56:23;16.40;85.90
5870;DHT22;2961;47.702;9.410;2024-03-29T06:58:50;17.00;82.80
5870;DHT22;2961;47.702;9.410;2024-03-29T07:01:17;17.10;81.20
5870;DHT22;2961;47.702;9.410;2024-03-29T07:03:44;17.80;81.00
5870;DHT22;2961;47.702;9.410;2024-03-29T07:06:11;18.20;79.90
5870;DHT22;2961;47.702;9.410;2024-03-29T07:08:38;18.20;76.40
5870;DHT22;2961;47.702;9.410;2024-03-29T07:11:04;18.00;76.50
5870;DHT22;2961;47.702;9.410;2024-03-29T07:13:33;17.70;75.60
5870;DHT22;2961;47.702;9.410;2024-03-29T07:15:59;17.10;77.20
5870;DHT22;2961;47.702;9.410;2024-03-29T07:18:27;17.30;77.90
5870;DHT22;2961;47.702;9.410;2024-03-29T07:20:54;16.80;77.80
5870;DHT22;2961;47.702;9.410;2024-03-29T07:23:21;17.20;78.50
5870;DHT22;2961;47.702;9.410;2024-03-29T07:25:57;16.60;78.10
5870;DHT22;2961;47.702;9.410;2024-03-29T07:28:25;16.60;81.30
5870;DHT22;2961;47.702;9.410;2024-03-29T07:30:53;16.60;84.70
5870;DHT22;2961;47.702;9.410;2024-03-29T07:33:20;16.50;82.00
5870;DHT22;2961;47.702;9.410;2024-03-29T07:35:49;16.90;84.40
5870;DHT22;2961;47.702;9.410;2024-03-29T07:38:16;17.00;84.60
5870;DHT22;2961;47.702;9.410;2024-03-29T07:40:43;16.80;83.10
5870;DHT22;2961;47.702;9.410;2024-03-29T07:43:09;16.60;80.90
5870;DHT22;2961;47.702;9.410;2024-03-29T07:45:39;16.30;84.90
5870;DHT22;2961;47.702;9.410;2024-03-29T07:48:11;16.10;82.70
5870;DHT22;2961;47.702;9.410;2024-03-29T07:50:38;16.20;81.20
5870;DHT22;2961;47.702;9.410;2024-03-29T07:53:05;16.30;80.20
5870;DHT22;2961;47.702;9.410;2024-03-29T07:55:32;15.70;78.10
5870;DHT22;2961;47.702;9.410;2024-03-29T07:57:59;14.80;81.80
5870;DHT22;2961;47.702;9.410;2024-03-29T08:00:25;14.10;84.70
5870;DHT22;2961;47.702;9.410;2024-03-29T08:02:52;13.40;87.50
5870;DHT22;2961;47.702;9.410;2024-03-29T08:05:20;12.90;89.40
5870;DHT22;2961;47.702;9.410;2024-03-29T08:07:47;12.80;91.00
5870;DHT22;2961;47.702;9.410;2024-03-29T08:10:14;12.80;91.60
5870;DHT22;2961;47.702;9.410;2024-03-29T08:12:41;12.90;92.10
5870;DHT22;2961;47.702;9.410;2024-03-29T08:15:08;12.80;92.20
5870;DHT22;2961;47.702;9.410;2024-03-29T08:17:35;12.70;92.20
5870;DHT22;2961;47.702;9.410;2024-03-29T08:20:03;12.60;92.60
5870;DHT22;2961;47.702;9.410;2024-03-29T08:22:31;12.60;92.90
5870;DHT22;2961;47.702;9.410;2024-03-29T08:24:59;12.50;93.60
5870;DHT22;2961;47.702;9.410;2024-03-29T08:27:26;12.50;94.00
5870;DHT22;2961;47.702;9.410;2024-03-29T08:29:53;12.60;93.40
5870;DHT22;2961;47.702;9.410;2024-03-29T08:32:20;12.70;94.80
5870;DHT22;2961;47.702;9.410;2024-03-29T08:34:47;12.70;93.80
5870;DHT22;2961;47.702;9.410;2024-03-29T08:37:14;12.80;93.50
5870;DHT22;2961;47.702;9.410;2024-03-29T08:39:42;13.00;94.00
5870;DHT22;2961;47.702;9.410;2024-03-29T08:42:09;13.20;92.70
5870;DHT22;2961;47.702;9.410;2024-03-29T08:44:37;13.30;94.80
5870;DHT22;2961;47.702;9.410;2024-03-29T08:47:04;13.50;93.20
5870;DHT22;2961;47.702;9.410;2024-03-29T08:49:31;13.70;95.00
5870;DHT22;2961;47.702;9.410;2024-03-29T08:51:58;13.80;94.40
5870;DHT22;2961;47.702;9.410;2024-03-29T08:54:30;14.00;96.70
5870;DHT22;2961;47.702;9.410;2024-03-29T08:56:58;14.00;98.70
5870;DHT22;2961;47.702;9.410;2024-03-29T08:59:27;13.90;99.50
5870;DHT22;2961;47.702;9.410;2024-03-29T09:01:54;13.80;98.90
5870;DHT22;2961;47.702;9.410;2024-03-29T09:04:29;13.90;98.80
5870;DHT22;2961;47.702;9.410;2024-03-29T09:06:56;13.90;99.50
5870;DHT22;2961;47.702;9.410;2024-03-29T09:09:23;13.90;99.30
5870;DHT22;2961;47.702;9.410;2024-03-29T09:11:50;14.00;99.90
5870;DHT22;2961;47.702;9.410;2024-03-29T09:14:18;14.00;99.90
5870;DHT22;2961;47.702;9.410;2024-03-29T09:16:45;14.00;99.30
5870;DHT22;2961;47.702;9.410;2024-03-29T09:19:13;14.10;99.90
5870;DHT22;2961;47.702;9.410;2024-03-29T09:21:40;14.10;99.90
5870;DHT22;2961;47.702;9.410;2024-03-29T09:24:07;14.20;99.90
5870;DHT22;2961;47.702;9.410;2024-03-29T09:26:34;14.20;99.90
5870;DHT22;2961;47.702;9.410;2024-03-29T09:29:00;14.40;99.90
5870;DHT22;2961;47.702;9.410;2024-03-29T09:31:29;14.60;99.30
5870;DHT22;2961;47.702;9.410;2024-03-29T09:33:55;14.80;99.20
5870;DHT22;2961;47.702;9.410;2024-03-29T09:36:23;15.10;99.40
5870;DHT22;2961;47.702;9.410;2024-03-29T09:38:50;15.40;99.00
5870;DHT22;2961;47.702;9.410;2024-03-29T09:41:19;15.60;98.40
5870;DHT22;2961;47.702;9.410;2024-03-29T09:43:46;15.90;98.10
5870;DHT22;2961;47.702;9.410;2024-03-29T09:46:14;16.10;96.40
5870;DHT22;2961;47.702;9.410;2024-03-29T09:48:44;16.30;96.60
5870;DHT22;2961;47.702;9.410;2024-03-29T09:51:13;16.40;95.60
5870;DHT22;2961;47.702;9.410;2024-03-29T09:53:42;16.60;95.00
5870;DHT22;2961;47.702;9.410;2024-03-29T09:56:10;16.80;94.30
5870;DHT22;2961;47.702;9.410;2024-03-29T09:58:37;17.00;91.70
5870;DHT22;2961;47.702;9.410;2024-03-29T10:01:05;17.20;90.10
5870;DHT22;2961;47.702;9.410;2024-03-29T10:03:41;17.30;89.60
5870;DHT22;2961;47.702;9.410;2024-03-29T10:06:10;17.40;91.90
5870;DHT22;2961;47.702;9.410;2024-03-29T10:08:39;17.60;86.60
5870;DHT22;2961;47.702;9.410;2024-03-29T10:11:06;17.70;88.70
5870;DHT22;2961;47.702;9.410;2024-03-29T10:13:33;17.80;87.20
5870;DHT22;2961;47.702;9.410;2024-03-29T10:16:01;17.90;88.40
5870;DHT22;2961;47.702;9.410;2024-03-29T10:18:28;18.10;84.40
5870;DHT22;2961;47.702;9.410;2024-03-29T10:21:00;18.20;84.40
5870;DHT22;2961;47.702;9.410;2024-03-29T10:23:30;18.20;84.30
5870;DHT22;2961;47.702;9.410;2024-03-29T10:25:57;18.40;83.70
5870;DHT22;2961;47.702;9.410;2024-03-29T10:28:29;18.60;83.90
5870;DHT22;2961;47.702;9.410;2024-03-29T10:30:57;18.80;81.50
5870;DHT22;2961;47.702;9.410;2024-03-29T10:33:27;18.90;84.90
5870;DHT22;2961;47.702;9.410;2024-03-29T10:35:56;19.00;83.60
5870;DHT22;2961;47.702;9.410;2024-03-29T10:38:24;19.20;83.90
5870;DHT22;2961;47.702;9.410;2024-03-29T10:40:54;19.30;81.50
5870;DHT22;2961;47.702;9.410;2024-03-29T10:43:21;19.50;85.20
5870;DHT22;2961;47.702;9.410;2024-03-29T10:45:48;19.60;84.10
5870;DHT22;2961;47.702;9.410;2024-03-29T10:48:16;19.80;80.40
5870;DHT22;2961;47.702;9.410;2024-03-29T10:50:44;19.80;81.30
5870;DHT22;2961;47.702;9.410;2024-03-29T10:53:12;19.80;78.80
5870;DHT22;2961;47.702;9.410;2024-03-29T10:55:42;19.90;83.00
5870;DHT22;2961;47.702;9.410;2024-03-29T10:58:11;19.90;78.70
5870;DHT22;2961;47.702;9.410;2024-03-29T11:00:46;19.80;77.90
5870;DHT22;2961;47.702;9.410;2024-03-29T11:03:17;19.80;79.60
5870;DHT22;2961;47.702;9.410;2024-03-29T11:05:48;19.90;77.10
5870;DHT22;2961;47.702;9.410;2024-03-29T11:08:21;19.60;75.50
5870;DHT22;2961;47.702;9.410;2024-03-29T11:10:50;19.60;77.40
5870;DHT22;2961;47.702;9.410;2024-03-29T11:13:26;19.50;77.40
5870;DHT22;2961;47.702;9.410;2024-03-29T11:15:55;19.60;76.10
5870;DHT22;2961;47.702;9.410;2024-03-29T11:18:22;19.60;77.10
5870;DHT22;2961;47.702;9.410;2024-03-29T11:20:51;19.70;81.00
5870;DHT22;2961;47.702;9.410;2024-03-29T11:23:19;19.80;81.70
5870;DHT22;2961;47.702;9.410;2024-03-29T11:25:48;20.00;80.60
5870;DHT22;2961;47.702;9.410;2024-03-29T11:28:15;20.20;82.60
5870;DHT22;2961;47.702;9.410;2024-03-29T11:30:51;20.30;81.30
5870;DHT22;2961;47.702;9.410;2024-03-29T11:33:26;20.40;83.50
5870;DHT22;2961;47.702;9.410;2024-03-29T11:35:53;20.60;78.90
5870;DHT22;2961;47.702;9.410;2024-03-29T11:38:20;20.70;76.50
5870;DHT22;2961;47.702;9.410;2024-03-29T11:40:54;20.60;74.00
5870;DHT22;2961;47.702;9.410;2024-03-29T11:43:21;20.70;75.90
5870;DHT22;2961;47.702;9.410;2024-03-29T11:45:50;20.80;75.50
5870;DHT22;2961;47.702;9.410;2024-03-29T11:48:23;20.80;75.50
5870;DHT22;2961;47.702;9.410;2024-03-29T11:50:52;20.70;79.00
5870;DHT22;2961;47.702;9.410;2024-03-29T11:53:18;20.70;76.60
5870;DHT22;2961;47.702;9.410;2024-03-29T11:55:46;20.60;77.80
5870;DHT22;2961;47.702;9.410;2024-03-29T11:58:14;20.60;74.50
5870;DHT22;2961;47.702;9.410;2024-03-29T12:00:41;20.70;77.00
5870;DHT22;2961;47.702;9.410;2024-03-29T12:03:12;20.70;76.90
5870;DHT22;2961;47.702;9.410;2024-03-29T12:05:39;20.70;73.50
5870;DHT22;2961;47.702;9.410;2024-03-29T12:08:06;20.80;75.10
5870;DHT22;2961;47.702;9.410;2024-03-29T12:10:35;20.80;74.80
5870;DHT22;2961;47.702;9.410;2024-03-29T12:13:02;20.80;75.30
5870;DHT22;2961;47.702;9.410;2024-03-29T12:15:30;20.80;74.10
5870;DHT22;2961;47.702;9.410;2024-03-29T12:17:58;20.70;75.10
5870;DHT22;2961;47.702;9.410;2024-03-29T12:20:28;20.70;74.10
5870;DHT22;2961;47.702;9.410;2024-03-29T12:22:56;20.80;77.10
5870;DHT22;2961;47.702;9.410;2024-03-29T12:25:23;20.90;73.10
5870;DHT22;2961;47.702;9.410;2024-03-29T12:27:50;21.00;75.10
5870;DHT22;2961;47.702;9.410;2024-03-29T12:30:17;21.00;74.00
5870;DHT22;2961;47.702;9.410;2024-03-29T12:32:44;21.00;75.10
5870;DHT22;2961;47.702;9.410;2024-03-29T12:35:12;21.00;73.70
5870;DHT22;2961;47.702;9.410;2024-03-29T12:37:49;21.00;71.70
5870;DHT22;2961;47.702;9.410;2024-03-29T12:40:17;21.20;72.20
5870;DHT22;2961;47.702;9.410;2024-03-29T12:42:48;21.20;71.70
5870;DHT22;2961;47.702;9.410;2024-03-29T12:45:15;21.30;73.60
5870;DHT22;2961;47.702;9.410;2024-03-29T12:47:43;21.30;73.10
5870;DHT22;2961;47.702;9.410;2024-03-29T12:50:13;21.30;71.30
5870;DHT22;2961;47.702;9.410;2024-03-29T12:52:41;21.30;72.30
5870;DHT22;2961;47.702;9.410;2024-03-29T12:55:10;21.20;71.20
5870;DHT22;2961;47.702;9.410;2024-03-29T12:57:37;21.00;74.50
5870;DHT22;2961;47.702;9.410;2024-03-29T13:00:07;20.90;71.50
5870;DHT22;2961;47.702;9.410;2024-03-29T13:02:35;20.90;71.00
5870;DHT22;2961;47.702;9.410;2024-03-29T13:05:03;21.00;72.30
5870;DHT22;2961;47.702;9.410;2024-03-29T13:07:31;21.10;70.30
5870;DHT22;2961;47.702;9.410;2024-03-29T13:09:58;21.00;71.00
5870;DHT22;2961;47.702;9.410;2024-03-29T13:12:30;20.80;71.30
5870;DHT22;2961;47.702;9.410;2024-03-29T13:15:01;20.80;72.60
5870;DHT22;2961;47.702;9.410;2024-03-29T13:17:29;20.70;73.10
5870;DHT22;2961;47.702;9.410;2024-03-29T13:19:56;20.50;73.40
5870;DHT22;2961;47.702;9.410;2024-03-29T13:22:23;20.40;72.60
5870;DHT22;2961;47.702;9.410;2024-03-29T13:24:50;20.00;71.70
5870;DHT22;2961;47.702;9.410;2024-03-29T13:27:17;19.70;72.70
5870;DHT22;2961;47.702;9.410;2024-03-29T13:29:45;19.30;75.20
5870;DHT22;2961;47.702;9.410;2024-03-29T13:32:12;19.00;75.30
5870;DHT22;2961;47.702;9.410;2024-03-29T13:34:39;18.90;76.10
5870;DHT22;2961;47.702;9.410;2024-03-29T13:37:06;18.90;75.40
5870;DHT22;2961;47.702;9.410;2024-03-29T13:39:33;18.90;74.20
5870;DHT22;2961;47.702;9.410;2024-03-29T13:41:59;18.90;73.90
5870;DHT22;2961;47.702;9.410;2024-03-29T13:44:26;19.10;73.00
5870;DHT22;2961;47.702;9.410;2024-03-29T13:46:54;19.20;73.60
5870;DHT22;2961;47.702;9.410;2024-03-29T13:49:21;19.20;75.90
5870;DHT22;2961;47.702;9.410;2024-03-29T13:51:48;19.20;74.00
5870;DHT22;2961;47.702;9.410;2024-03-29T13:54:15;19.20;73.80
5870;DHT22;2961;47.702;9.410;2024-03-29T13:56:42;19.30;73.00
5870;DHT22;2961;47.702;9.410;2024-03-29T13:59:09;19.50;72.80
5870;DHT22;2961;47.702;9.410;2024-03-29T14:01:36;19.60;72.10
5870;DHT22;2961;47.702;9.410;2024-03-29T14:04:04;19.80;73.60
5870;DHT22;2961;47.702;9.410;2024-03-29T14:06:31;19.80;72.00
5870;DHT22;2961;47.702;9.410;2024-03-29T14:08:58;19.90;71.50
5870;DHT22;2961;47.702;9.410;2024-03-29T14:11:25;20.00;74.70
5870;DHT22;2961;47.702;9.410;2024-03-29T14:13:52;20.20;73.90
5870;DHT22;2961;47.702;9.410;2024-03-29T14:16:21;20.20;72.00
5870;DHT22;2961;47.702;9.410;2024-03-29T14:18:48;20.20;71.00
5870;DHT22;2961;47.702;9.410;2024-03-29T14:21:16;20.10;68.60
5870;DHT22;2961;47.702;9.410;2024-03-29T14:23:43;20.00;69.40
5870;DHT22;2961;47.702;9.410;2024-03-29T14:26:10;20.00;72.30
5870;DHT22;2961;47.702;9.410;2024-03-29T14:28:37;19.90;72.20
5870;DHT22;2961;47.702;9.410;2024-03-29T14:31:04;19.80;69.00
5870;DHT22;2961;47.702;9.410;2024-03-29T14:33:31;19.80;71.80
5870;DHT22;2961;47.702;9.410;2024-03-29T14:35:59;19.80;71.80
5870;DHT22;2961;47.702;9.410;2024-03-29T14:38:27;19.80;73.90
5870;DHT22;2961;47.702;9.410;2024-03-29T14:40:55;19.90;72.10
5870;DHT22;2961;47.702;9.410;2024-03-29T14:43:22;19.90;72.70
5870;DHT22;2961;47.702;9.410;2024-03-29T14:45:49;19.70;72.30
5870;DHT22;2961;47.702;9.410;2024-03-29T14:48:16;19.70;73.20
5870;DHT22;2961;47.702;9.410;2024-03-29T14:50:43;19.70;74.40
5870;DHT22;2961;47.702;9.410;2024-03-29T14:53:10;19.70;72.80
5870;DHT22;2961;47.702;9.410;2024-03-29T14:55:39;19.60;73.50
5870;DHT22;2961;47.702;9.410;2024-03-29T14:58:06;19.50;73.60
5870;DHT22;2961;47.702;9.410;2024-03-29T15:00:33;19.50;72.50
5870;DHT22;2961;47.702;9.410;2024-03-29T15:03:00;19.40;73.80
5870;DHT22;2961;47.702;9.410;2024-03-29T15:05:27;19.40;74.80
5870;DHT22;2961;47.702;9.410;2024-03-29T15:07:54;19.40;75.90
5870;DHT22;2961;47.702;9.410;2024-03-29T15:10:21;19.30;75.00
5870;DHT22;2961;47.702;9.410;2024-03-29T15:12:50;19.10;73.50
5870;DHT22;2961;47.702;9.410;2024-03-29T15:15:17;19.00;75.00
5870;DHT22;2961;47.702;9.410;2024-03-29T15:17:45;18.80;76.40
5870;DHT22;2961;47.702;9.410;2024-03-29T15:20:11;18.70;75.00
5870;DHT22;2961;47.702;9.410;2024-03-29T15:22:41;18.60;75.60
5870;DHT22;2961;47.702;9.410;2024-03-29T15:25:09;18.50;74.00
5870;DHT22;2961;47.702;9.410;2024-03-29T15:27:36;18.40;73.70
5870;DHT22;2961;47.702;9.410;2024-03-29T15:30:18;18.40;74.20
5870;DHT22;2961;47.702;9.410;2024-03-29T15:32:45;18.40;74.90
5870;DHT22;2961;47.702;9.410;2024-03-29T15:35:12;18.30;74.20
5870;DHT22;2961;47.702;9.410;2024-03-29T15:37:39;18.10;75.20
5870;DHT22;2961;47.702;9.410;2024-03-29T15:40:07;17.90;76.30
5870;DHT22;2961;47.702;9.410;2024-03-29T15:42:35;17.70;74.40
5870;DHT22;2961;47.702;9.410;2024-03-29T15:45:05;17.50;74.40
5870;DHT22;2961;47.702;9.410;2024-03-29T15:47:33;17.50;74.50
5870;DHT22;2961;47.702;9.410;2024-03-29T15:50:00;17.40;73.20
5870;DHT22;2961;47.702;9.410;2024-03-29T15:52:26;17.40;73.80
5870;DHT22;2961;47.702;9.410;2024-03-29T15:54:53;17.50;72.60
5870;DHT22;2961;47.702;9.410;2024-03-29T15:57:21;17.40;72.50
5870;DHT22;2961;47.702;9.410;2024-03-29T15:59:48;17.40;74.00
5870;DHT22;2961;47.702;9.410;2024-03-29T16:02:15;17.40;74.20
5870;DHT22;2961;47.702;9.410;2024-03-29T16:04:43;17.40;72.50
5870;DHT22;2961;47.702;9.410;2024-03-29T16:07:10;17.50;70.60
5870;DHT22;2961;47.702;9.410;2024-03-29T16:09:37;17.50;71.10